DKH1132 ZSSS-ZBTJ
Flight info
| Callsign | DKH1132 |
|---|---|
| Flight time | N/A |
| Altitude | 30100 |
| Route | PIK61D/18R PIKAS G330 PIMOL A593 DALIM W157 AVBOX |
| Aircraft | A321/M-SDE3FGHIRWY/LB1 |
Departure
| Time | N/A |
|---|---|
| Airport | Shanghai Hongqiao International Airport (ZSSS) |
Arrival
| Time | 2026-04-25 15:55 |
|---|---|
| Airport | Tianjin Binhai International Airport (ZBTJ) |
| Time | Latitude | Longitude | Altitude | Speed | Heading |
|---|---|---|---|---|---|
| 2026-04-25 15:15 | 36.08545 | 117.33645 | 30077 ft | 421 kts | 341° |
| 2026-04-25 15:16 | 36.14160 | 117.31571 | 30077 ft | 421 kts | 341° |
| 2026-04-25 15:16 | 36.22532 | 117.28463 | 30075 ft | 421 kts | 341° |
| 2026-04-25 15:17 | 36.30946 | 117.25356 | 30072 ft | 421 kts | 341° |
| 2026-04-25 15:18 | 36.36549 | 117.23265 | 30067 ft | 420 kts | 341° |
| 2026-04-25 15:18 | 36.44828 | 117.19734 | 30059 ft | 419 kts | 335° |
| 2026-04-25 15:19 | 36.49332 | 117.17396 | 30056 ft | 419 kts | 336° |
| 2026-04-25 15:19 | 36.55578 | 117.14151 | 30056 ft | 418 kts | 336° |
| 2026-04-25 15:20 | 36.60953 | 117.11348 | 30053 ft | 419 kts | 335° |
| 2026-04-25 15:20 | 36.66322 | 117.08548 | 30049 ft | 419 kts | 335° |
| 2026-04-25 15:21 | 36.71696 | 117.05746 | 30042 ft | 418 kts | 335° |
| 2026-04-25 15:21 | 36.77065 | 117.02934 | 30034 ft | 418 kts | 335° |
| 2026-04-25 15:22 | 36.82422 | 117.00117 | 30034 ft | 418 kts | 335° |
| 2026-04-25 15:22 | 36.87782 | 116.97297 | 30038 ft | 418 kts | 335° |
| 2026-04-25 15:23 | 36.93133 | 116.94489 | 30031 ft | 417 kts | 335° |
| 2026-04-25 15:23 | 36.98484 | 116.91683 | 30039 ft | 417 kts | 335° |
| 2026-04-25 15:24 | 37.03825 | 116.88867 | 30033 ft | 416 kts | 335° |
| 2026-04-25 15:24 | 37.08257 | 116.86523 | 30043 ft | 416 kts | 335° |
| 2026-04-25 15:25 | 37.14482 | 116.83228 | 30034 ft | 415 kts | 335° |
| 2026-04-25 15:25 | 37.19801 | 116.80413 | 30034 ft | 415 kts | 335° |
| 2026-04-25 15:26 | 37.25261 | 116.78048 | 30036 ft | 416 kts | 340° |
| 2026-04-25 15:26 | 37.30806 | 116.75958 | 30033 ft | 416 kts | 340° |
| 2026-04-25 15:27 | 37.36347 | 116.73859 | 30022 ft | 415 kts | 340° |
| 2026-04-25 15:28 | 37.44634 | 116.70703 | 30030 ft | 415 kts | 340° |
| 2026-04-25 15:28 | 37.47400 | 116.69649 | 29841 ft | 416 kts | 340° |
| 2026-04-25 15:28 | 37.50167 | 116.68595 | 29280 ft | 416 kts | 340° |
| 2026-04-25 15:28 | 37.52947 | 116.67535 | 28724 ft | 418 kts | 340° |
| 2026-04-25 15:29 | 37.55744 | 116.66468 | 28189 ft | 421 kts | 340° |
| 2026-04-25 15:29 | 37.58555 | 116.65395 | 27665 ft | 424 kts | 340° |
| 2026-04-25 15:29 | 37.61386 | 116.64310 | 27144 ft | 427 kts | 340° |
| 2026-04-25 15:29 | 37.64240 | 116.63214 | 26639 ft | 430 kts | 340° |
| 2026-04-25 15:30 | 37.67112 | 116.62111 | 26137 ft | 433 kts | 341° |
| 2026-04-25 15:30 | 37.70007 | 116.60998 | 25641 ft | 436 kts | 340° |
| 2026-04-25 15:30 | 37.72923 | 116.59881 | 25155 ft | 440 kts | 341° |
| 2026-04-25 15:30 | 37.75865 | 116.58763 | 24682 ft | 443 kts | 341° |
| 2026-04-25 15:31 | 37.78829 | 116.57642 | 24210 ft | 446 kts | 341° |
| 2026-04-25 15:31 | 37.81814 | 116.56513 | 23750 ft | 449 kts | 341° |
| 2026-04-25 15:31 | 37.84809 | 116.55383 | 23258 ft | 449 kts | 341° |
| 2026-04-25 15:31 | 37.87801 | 116.54250 | 22710 ft | 447 kts | 341° |
| 2026-04-25 15:32 | 37.90769 | 116.53121 | 22183 ft | 444 kts | 341° |
| 2026-04-25 15:32 | 37.93718 | 116.51997 | 21654 ft | 442 kts | 341° |
| 2026-04-25 15:32 | 37.96584 | 116.50662 | 21137 ft | 437 kts | 333° |
| 2026-04-25 15:33 | 38.01695 | 116.46667 | 20131 ft | 429 kts | 322° |
| 2026-04-25 15:33 | 38.04107 | 116.44451 | 19642 ft | 427 kts | 322° |
| 2026-04-25 15:33 | 38.06506 | 116.42257 | 19156 ft | 424 kts | 323° |
| 2026-04-25 15:33 | 38.08876 | 116.40089 | 18670 ft | 415 kts | 322° |
| 2026-04-25 15:34 | 38.11193 | 116.37967 | 18210 ft | 407 kts | 322° |
| 2026-04-25 15:34 | 38.13465 | 116.35885 | 17681 ft | 399 kts | 322° |
| 2026-04-25 15:34 | 38.15695 | 116.33841 | 17150 ft | 392 kts | 323° |
| 2026-04-25 15:34 | 38.16439 | 116.33159 | 16980 ft | 389 kts | 323° |
| 2026-04-25 15:35 | 38.22404 | 116.28397 | 15614 ft | 375 kts | 335° |
| 2026-04-25 15:35 | 38.24859 | 116.27317 | 15129 ft | 372 kts | 343° |
| 2026-04-25 15:35 | 38.27384 | 116.26689 | 14636 ft | 369 kts | 351° |
| 2026-04-25 15:36 | 38.32468 | 116.26806 | 13680 ft | 365 kts | 7° |
| 2026-04-25 15:36 | 38.34886 | 116.27770 | 13165 ft | 366 kts | 24° |
| 2026-04-25 15:36 | 38.37012 | 116.29546 | 12645 ft | 366 kts | 34° |
| 2026-04-25 15:37 | 38.39036 | 116.31491 | 12135 ft | 363 kts | 34° |
| 2026-04-25 15:37 | 38.41031 | 116.33444 | 11753 ft | 358 kts | 35° |
| 2026-04-25 15:37 | 38.42994 | 116.35388 | 11673 ft | 357 kts | 35° |
| 2026-04-25 15:37 | 38.44963 | 116.37340 | 11692 ft | 358 kts | 35° |
| 2026-04-25 15:38 | 38.46930 | 116.39287 | 11691 ft | 358 kts | 35° |
| 2026-04-25 15:38 | 38.48872 | 116.41209 | 11619 ft | 347 kts | 35° |
| 2026-04-25 15:38 | 38.50743 | 116.43064 | 11494 ft | 334 kts | 35° |
| 2026-04-25 15:38 | 38.52547 | 116.44852 | 11369 ft | 322 kts | 34° |
| 2026-04-25 15:39 | 38.54285 | 116.46572 | 11247 ft | 311 kts | 34° |
| 2026-04-25 15:39 | 38.55966 | 116.48235 | 11097 ft | 301 kts | 34° |
| 2026-04-25 15:39 | 38.57615 | 116.49862 | 10802 ft | 298 kts | 34° |
| 2026-04-25 15:39 | 38.59252 | 116.51477 | 10456 ft | 296 kts | 34° |
| 2026-04-25 15:40 | 38.60881 | 116.53087 | 10085 ft | 296 kts | 34° |
| 2026-04-25 15:40 | 38.61429 | 116.53628 | 9973 ft | 296 kts | 34° |
| 2026-04-25 15:40 | 38.64126 | 116.56297 | 9328 ft | 294 kts | 35° |
| 2026-04-25 15:40 | 38.65744 | 116.57901 | 8956 ft | 293 kts | 35° |
| 2026-04-25 15:41 | 38.67351 | 116.59497 | 8905 ft | 294 kts | 35° |
| 2026-04-25 15:41 | 38.68968 | 116.61103 | 8899 ft | 295 kts | 35° |
| 2026-04-25 15:41 | 38.70591 | 116.62717 | 8912 ft | 295 kts | 35° |
| 2026-04-25 15:41 | 38.72212 | 116.64330 | 8893 ft | 295 kts | 35° |
| 2026-04-25 15:42 | 38.73834 | 116.65941 | 8892 ft | 295 kts | 35° |
| 2026-04-25 15:42 | 38.75448 | 116.67544 | 8609 ft | 293 kts | 35° |
| 2026-04-25 15:42 | 38.77054 | 116.69141 | 8210 ft | 292 kts | 36° |
| 2026-04-25 15:42 | 38.78656 | 116.70739 | 7814 ft | 292 kts | 36° |
| 2026-04-25 15:43 | 38.80255 | 116.72336 | 7437 ft | 291 kts | 36° |
| 2026-04-25 15:43 | 38.81852 | 116.73930 | 7057 ft | 291 kts | 36° |
| 2026-04-25 15:43 | 38.83446 | 116.75524 | 6696 ft | 290 kts | 37° |
| 2026-04-25 15:43 | 38.85038 | 116.77116 | 6330 ft | 290 kts | 37° |
| 2026-04-25 15:44 | 38.86624 | 116.78700 | 5963 ft | 289 kts | 37° |
| 2026-04-25 15:44 | 38.88209 | 116.80283 | 5890 ft | 290 kts | 36° |
| 2026-04-25 15:44 | 38.89810 | 116.81883 | 5896 ft | 292 kts | 37° |
| 2026-04-25 15:44 | 38.91409 | 116.83484 | 5904 ft | 292 kts | 36° |
| 2026-04-25 15:45 | 38.93010 | 116.85090 | 5904 ft | 292 kts | 36° |
| 2026-04-25 15:45 | 38.94609 | 116.86697 | 5901 ft | 292 kts | 37° |
| 2026-04-25 15:45 | 38.96207 | 116.88304 | 5899 ft | 292 kts | 36° |
| 2026-04-25 15:45 | 38.96745 | 116.88846 | 5902 ft | 292 kts | 37° |
| 2026-04-25 15:46 | 38.99410 | 116.91524 | 5902 ft | 293 kts | 36° |
| 2026-04-25 15:46 | 39.01011 | 116.93131 | 5721 ft | 292 kts | 37° |
| 2026-04-25 15:46 | 39.02611 | 116.94740 | 5306 ft | 292 kts | 36° |
| 2026-04-25 15:46 | 39.04211 | 116.96352 | 4918 ft | 292 kts | 36° |
| 2026-04-25 15:47 | 39.05270 | 116.97421 | 4671 ft | 292 kts | 36° |
| 2026-04-25 15:47 | 39.06870 | 116.99033 | 4287 ft | 292 kts | 36° |
| 2026-04-25 15:47 | 39.08470 | 117.00642 | 3908 ft | 292 kts | 36° |
| 2026-04-25 15:47 | 39.10071 | 117.02253 | 3510 ft | 293 kts | 36° |
| 2026-04-25 15:48 | 39.11683 | 117.03879 | 3082 ft | 295 kts | 36° |
| 2026-04-25 15:48 | 39.13295 | 117.05508 | 2896 ft | 296 kts | 36° |
| 2026-04-25 15:48 | 39.14913 | 117.07147 | 2897 ft | 297 kts | 36° |
| 2026-04-25 15:48 | 39.16552 | 117.08804 | 2902 ft | 300 kts | 36° |
| 2026-04-25 15:49 | 39.18189 | 117.10464 | 2902 ft | 297 kts | 36° |
| 2026-04-25 15:49 | 39.19772 | 117.12069 | 2899 ft | 282 kts | 36° |
| 2026-04-25 15:49 | 39.21276 | 117.13596 | 2898 ft | 268 kts | 36° |
| 2026-04-25 15:49 | 39.22655 | 117.15118 | 2916 ft | 253 kts | 47° |
| 2026-04-25 15:50 | 39.23583 | 117.16934 | 2923 ft | 236 kts | 66° |
| 2026-04-25 15:50 | 39.24291 | 117.18809 | 2888 ft | 229 kts | 65° |
| 2026-04-25 15:50 | 39.24986 | 117.20634 | 2605 ft | 225 kts | 65° |
| 2026-04-25 15:50 | 39.25673 | 117.22431 | 2271 ft | 223 kts | 66° |
| 2026-04-25 15:51 | 39.26322 | 117.24243 | 1941 ft | 222 kts | 77° |
| 2026-04-25 15:51 | 39.26493 | 117.25537 | 1900 ft | 214 kts | 97° |
| 2026-04-25 15:51 | 39.26068 | 117.27894 | 1910 ft | 196 kts | 129° |
| 2026-04-25 15:51 | 39.25321 | 117.29168 | 1929 ft | 161 kts | 150° |
| 2026-04-25 15:52 | 39.24474 | 117.29914 | 1909 ft | 138 kts | 169° |
| 2026-04-25 15:52 | 39.23608 | 117.30446 | 1898 ft | 138 kts | 168° |
| 2026-04-25 15:52 | 39.22749 | 117.30974 | 1821 ft | 137 kts | 167° |
| 2026-04-25 15:52 | 39.21892 | 117.31501 | 1685 ft | 136 kts | 167° |
| 2026-04-25 15:53 | 39.21047 | 117.32021 | 1517 ft | 133 kts | 167° |
| 2026-04-25 15:53 | 39.20208 | 117.32537 | 1353 ft | 133 kts | 165° |
| 2026-04-25 15:53 | 39.19375 | 117.33049 | 1169 ft | 133 kts | 166° |
| 2026-04-25 15:53 | 39.18534 | 117.33565 | 1001 ft | 135 kts | 163° |
| 2026-04-25 15:54 | 39.17677 | 117.34090 | 816 ft | 138 kts | 160° |
| 2026-04-25 15:54 | 39.16805 | 117.34626 | 654 ft | 139 kts | 156° |
| 2026-04-25 15:54 | 39.15932 | 117.35163 | 406 ft | 140 kts | 157° |
| 2026-04-25 15:54 | 39.15044 | 117.35705 | 229 ft | 142 kts | 156° |
| 2026-04-25 15:55 | 39.14139 | 117.36261 | 61 ft | 142 kts | 155° |
| 2026-04-25 15:55 | 39.13303 | 117.36774 | 21 ft | 113 kts | 154° |
| 2026-04-25 15:55 | 39.12791 | 117.37091 | 21 ft | 49 kts | 155° |
| 2026-04-25 15:55 | 39.12595 | 117.37211 | 19 ft | 23 kts | 154° |
| 2026-04-25 15:56 | 39.12453 | 117.37252 | 20 ft | 20 kts | 171° |
| 2026-04-25 15:56 | 39.12324 | 117.37264 | 19 ft | 14 kts | 197° |
| 2026-04-25 15:56 | 39.12292 | 117.37188 | 19 ft | 9 kts | 285° |
| 2026-04-25 15:56 | 39.12335 | 117.37137 | 19 ft | 8 kts | 332° |
| 2026-04-25 15:57 | 39.12384 | 117.37106 | 19 ft | 7 kts | 333° |
| 2026-04-25 15:57 | 39.12416 | 117.37086 | 20 ft | 0 kts | 333° |